Time;durP1;ratioP1;P1;durP2;ratioP2;P2;SDS_P1;SDS_P2;PMS_P1;PMS_P2;Temp;Humidity;BMP_temperature;BMP_pressure;BME280_temperature;BME280_humidity;BME280_pressure;Samples;Min_cycle;Max_cycle;Signal;HPM_P1;HPM_P2
2022/09/22 00:01:17;;;;;;;3.63;3.30;;;13.70;81.80;;;;;;5056634;28;20067;-63
2022/09/22 00:03:49;;;;;;;3.10;2.80;;;13.70;81.90;;;;;;5055542;28;20049;-63
2022/09/22 00:06:37;;;;;;;4.32;3.15;;;13.70;82.00;;;;;;5057523;28;20021;-63
2022/09/22 00:09:05;;;;;;;4.05;3.45;;;13.70;81.90;;;;;;5056586;28;21353;-64
2022/09/22 00:11:34;;;;;;;4.25;3.42;;;13.70;82.10;;;;;;5057670;28;20048;-64
2022/09/22 00:14:19;;;;;;;4.60;3.00;;;13.70;82.00;;;;;;5057633;28;20071;-64
2022/09/22 00:16:54;;;;;;;3.83;3.10;;;13.70;82.10;;;;;;5057084;28;20036;-64
2022/09/22 00:19:22;;;;;;;5.00;3.80;;;13.70;81.90;;;;;;5055215;28;20044;-63
2022/09/22 00:21:49;;;;;;;5.32;3.70;;;13.70;81.90;;;;;;5051950;28;20029;-63
2022/09/22 00:24:16;;;;;;;5.13;3.88;;;13.70;81.90;;;;;;5052708;28;20025;-64
2022/09/22 00:26:42;;;;;;;4.35;3.45;;;13.70;82.00;;;;;;5056763;28;20564;-64
2022/09/22 00:29:08;;;;;;;3.67;3.25;;;13.70;82.10;;;;;;5057836;28;20048;-63
2022/09/22 00:31:39;;;;;;;5.18;3.45;;;13.70;82.10;;;;;;5056511;28;20020;-63
2022/09/22 00:34:05;;;;;;;3.55;3.10;;;13.70;82.10;;;;;;5057990;28;20033;-63
2022/09/22 00:36:32;;;;;;;4.53;3.50;;;13.70;82.10;;;;;;5055660;28;20025;-64
2022/09/22 00:38:58;;;;;;;4.28;3.38;;;13.70;82.10;;;;;;5057842;28;20476;-63
2022/09/22 00:41:26;;;;;;;4.97;3.97;;;13.70;82.10;;;;;;5054894;28;20025;-63
2022/09/22 00:44:20;;;;;;;4.68;3.53;;;13.80;82.20;;;;;;5058009;28;20102;-63
2022/09/22 00:46:53;;;;;;;5.03;3.65;;;13.80;82.10;;;;;;5061171;28;20021;-63
2022/09/22 00:49:27;;;;;;;5.22;3.50;;;13.80;82.20;;;;;;5061399;28;20021;-63
2022/09/22 00:51:52;;;;;;;6.28;3.50;;;13.80;82.30;;;;;;5061853;28;20029;-64
2022/09/22 00:54:19;;;;;;;4.38;3.40;;;13.80;82.20;;;;;;5057807;28;20025;-63
2022/09/22 00:57:06;;;;;;;4.13;3.47;;;13.80;82.20;;;;;;5061411;28;20036;-63
2022/09/22 00:59:32;;;;;;;4.32;3.60;;;13.80;82.10;;;;;;5060603;28;20031;-64
2022/09/22 01:01:58;;;;;;;4.28;3.60;;;13.90;82.20;;;;;;5060736;28;20025;-63
2022/09/22 01:04:24;;;;;;;4.53;3.65;;;13.80;82.20;;;;;;5060475;28;20036;-63
2022/09/22 01:06:50;;;;;;;4.50;3.78;;;13.90;82.20;;;;;;5061378;28;20029;-64
2022/09/22 01:09:16;;;;;;;3.83;3.20;;;13.90;82.10;;;;;;5059923;28;20021;-63
2022/09/22 01:11:42;;;;;;;4.15;3.45;;;13.90;82.10;;;;;;5059854;28;20047;-64
2022/09/22 01:14:31;;;;;;;4.43;3.42;;;13.90;82.10;;;;;;5060353;28;20138;-64
2022/09/22 01:17:41;;;;;;;3.83;3.38;;;13.90;82.10;;;;;;5061637;28;20365;-63
2022/09/22 01:20:15;;;;;;;4.30;3.55;;;13.90;82.00;;;;;;5050549;28;20045;-63
2022/09/22 01:22:54;;;;;;;3.38;3.08;;;13.90;82.20;;;;;;5061004;28;20032;-63
2022/09/22 01:25:57;;;;;;;4.50;3.75;;;13.90;82.20;;;;;;5058592;28;20028;-64
2022/09/22 01:28:28;;;;;;;3.70;3.25;;;13.90;82.10;;;;;;5058635;28;20422;-63
2022/09/22 01:31:14;;;;;;;;;;;13.90;82.20;;;;;;5053323;28;20033;-63
2022/09/22 01:34:05;;;;;;;3.70;3.33;;;13.80;82.10;;;;;;5056077;28;19934;-63
2022/09/22 01:36:45;;;;;;;3.20;2.90;;;13.90;82.10;;;;;;5060837;28;20388;-63
2022/09/22 01:39:29;;;;;;;3.55;3.17;;;13.90;82.10;;;;;;5060680;28;20044;-63
2022/09/22 01:42:04;;;;;;;3.75;3.17;;;13.90;82.10;;;;;;5052363;28;20035;-63
2022/09/22 01:44:39;;;;;;;3.65;3.10;;;13.90;82.10;;;;;;5057196;28;20021;-63
2022/09/22 01:47:23;;;;;;;3.38;3.00;;;13.90;82.20;;;;;;5061322;28;20029;-63
2022/09/22 01:49:56;;;;;;;3.40;2.95;;;13.90;82.20;;;;;;5059333;28;20023;-64
2022/09/22 01:52:28;;;;;;;3.55;3.05;;;13.90;82.30;;;;;;5060518;28;20775;-63
2022/09/22 01:55:09;;;;;;;3.30;3.00;;;14.00;82.90;;;;;;5048914;28;20076;-64
2022/09/22 01:57:58;;;;;;;3.97;3.30;;;14.00;82.00;;;;;;5059735;28;20013;-63
2022/09/22 02:00:24;;;;;;;3.17;2.88;;;14.00;82.00;;;;;;5052761;28;20033;-63
2022/09/22 02:03:09;;;;;;;3.70;3.05;;;14.10;82.60;;;;;;5060060;28;20115;-63
2022/09/22 02:05:47;;;;;;;4.13;3.13;;;14.10;82.00;;;;;;5060056;28;20045;-63
2022/09/22 02:08:19;;;;;;;3.72;2.92;;;14.10;81.80;;;;;;5060649;28;20016;-63
2022/09/22 02:10:47;;;;;;;3.70;2.90;;;14.20;81.70;;;;;;5060491;28;20039;-64
2022/09/22 02:13:13;;;;;;;3.20;2.90;;;14.20;81.70;;;;;;5060519;28;20055;-63
2022/09/22 02:18:36;;;;;;;3.33;2.80;;;14.20;81.60;;;;;;5058989;28;20090;-63
2022/09/22 02:21:03;;;;;;;3.00;2.55;;;14.20;81.50;;;;;;5060775;28;20033;-63
2022/09/22 02:23:31;;;;;;;2.80;2.58;;;14.30;81.50;;;;;;5059896;28;20028;-63
2022/09/22 02:25:58;;;;;;;3.15;2.78;;;14.30;81.50;;;;;;5052145;28;20071;-63
2022/09/22 02:28:25;;;;;;;3.15;2.80;;;14.30;81.40;;;;;;5056961;28;20479;-63
2022/09/22 02:30:54;;;;;;;3.30;2.72;;;14.30;81.40;;;;;;5058434;28;20033;-63
2022/09/22 02:33:22;;;;;;;3.58;3.20;;;14.30;81.30;;;;;;5059702;28;20017;-64
2022/09/22 02:36:18;;;;;;;3.25;2.80;;;14.30;81.20;;;;;;5060368;28;20033;-63
2022/09/22 02:38:55;;;;;;;3.00;2.65;;;14.30;81.10;;;;;;5037615;28;20499;-63
2022/09/22 02:41:28;;;;;;;3.45;3.08;;;14.30;81.10;;;;;;5057229;28;20025;-63
2022/09/22 02:44:05;;;;;;;3.10;2.80;;;14.30;81.10;;;;;;5061052;28;20504;-64
2022/09/22 02:46:42;;;;;;;3.17;2.88;;;14.30;81.10;;;;;;5058427;28;20106;-63
2022/09/22 02:49:17;;;;;;;3.10;2.60;;;14.20;81.10;;;;;;5055592;28;20025;-63
2022/09/22 02:51:45;;;;;;;3.28;2.95;;;14.20;81.20;;;;;;5058759;28;20029;-64
2022/09/22 02:54:13;;;;;;;3.13;2.80;;;14.30;81.20;;;;;;5060108;28;20041;-63
2022/09/22 02:56:40;;;;;;;3.45;3.13;;;14.30;81.20;;;;;;5059164;28;20025;-63
2022/09/22 02:59:08;;;;;;;3.50;3.20;;;14.30;81.10;;;;;;5059893;28;20020;-64
2022/09/22 03:01:34;;;;;;;2.88;2.58;;;14.30;81.10;;;;;;5058304;28;20024;-63
2022/09/22 03:03:59;;;;;;;2.60;2.40;;;14.30;81.00;;;;;;5058919;28;20091;-64
2022/09/22 03:06:25;;;;;;;3.83;3.15;;;14.30;81.60;;;;;;5058534;28;20028;-64
2022/09/22 03:08:51;;;;;;;3.28;2.80;;;14.30;80.90;;;;;;5059909;28;20050;-63
2022/09/22 03:11:16;;;;;;;4.07;2.88;;;14.30;80.80;;;;;;5059199;28;20090;-63
2022/09/22 03:13:42;;;;;;;3.40;3.10;;;14.30;80.90;;;;;;5058533;28;20056;-63
2022/09/22 03:16:08;;;;;;;3.55;2.70;;;14.30;80.80;;;;;;5057908;28;20432;-63
2022/09/22 03:18:34;;;;;;;3.85;2.83;;;14.30;80.80;;;;;;5058817;28;20036;-63
2022/09/22 03:20:59;;;;;;;3.10;2.70;;;14.30;80.80;;;;;;5058733;28;20033;-64
2022/09/22 03:23:25;;;;;;;3.10;2.80;;;14.30;80.80;;;;;;5058174;28;20066;-63
2022/09/22 03:25:51;;;;;;;2.95;2.67;;;14.20;80.70;;;;;;5058213;28;20057;-63
2022/09/22 03:28:18;;;;;;;3.17;2.80;;;14.30;80.70;;;;;;5058809;28;20029;-64
2022/09/22 03:30:43;;;;;;;4.72;3.05;;;14.20;80.80;;;;;;5059347;28;20428;-63
2022/09/22 03:33:09;;;;;;;3.40;2.80;;;14.30;80.80;;;;;;5057656;28;20044;-63
2022/09/22 03:35:35;;;;;;;3.35;2.70;;;14.30;80.80;;;;;;5058435;28;20032;-64
2022/09/22 03:38:00;;;;;;;3.50;3.10;;;14.20;80.70;;;;;;5059058;28;20032;-64
2022/09/22 03:40:26;;;;;;;3.10;2.80;;;14.30;80.80;;;;;;5050945;28;20396;-63
2022/09/22 03:42:52;;;;;;;3.78;3.03;;;14.20;80.60;;;;;;5058010;28;20376;-63
2022/09/22 03:45:18;;;;;;;3.97;3.58;;;14.20;80.70;;;;;;5058262;28;20027;-63
2022/09/22 03:47:43;;;;;;;3.90;3.25;;;14.20;80.60;;;;;;5058758;28;20023;-63
2022/09/22 03:50:09;;;;;;;5.78;4.03;;;14.20;80.50;;;;;;5057687;28;20032;-63
2022/09/22 03:52:35;;;;;;;4.28;3.45;;;14.10;81.20;;;;;;5058932;28;20070;-63
2022/09/22 03:55:01;;;;;;;4.13;3.53;;;14.00;80.60;;;;;;5058921;28;20103;-63
2022/09/22 03:57:28;;;;;;;5.25;3.60;;;14.00;80.80;;;;;;5053509;28;20649;-63
2022/09/22 03:59:53;;;;;;;3.53;3.15;;;14.00;80.80;;;;;;5057798;28;20056;-63
2022/09/22 04:02:19;;;;;;;3.53;3.03;;;13.90;80.90;;;;;;5057809;28;20036;-64
2022/09/22 04:04:44;;;;;;;3.30;3.00;;;13.90;81.00;;;;;;5058826;28;20047;-63
2022/09/22 04:07:10;;;;;;;3.83;3.00;;;13.80;81.10;;;;;;5056978;28;20049;-63
2022/09/22 04:09:36;;;;;;;3.40;3.00;;;13.90;81.40;;;;;;5058114;28;20057;-63
2022/09/22 04:12:01;;;;;;;3.42;2.97;;;13.90;81.40;;;;;;5058157;28;20052;-63
2022/09/22 04:14:27;;;;;;;3.85;3.15;;;13.90;81.50;;;;;;5055903;28;20056;-63
2022/09/22 04:16:53;;;;;;;2.92;2.58;;;13.90;81.40;;;;;;5057540;28;20564;-64
2022/09/22 04:19:19;;;;;;;3.13;2.67;;;13.90;81.40;;;;;;5057874;28;20036;-63
2022/09/22 04:21:44;;;;;;;2.97;2.63;;;14.00;81.30;;;;;;5058263;28;20108;-64
2022/09/22 04:24:10;;;;;;;2.90;2.70;;;14.00;81.30;;;;;;5056455;28;20058;-63
2022/09/22 04:26:37;;;;;;;3.55;2.95;;;14.00;81.20;;;;;;5053549;28;20507;-63
2022/09/22 04:29:03;;;;;;;3.55;3.00;;;14.10;81.30;;;;;;5057367;28;20028;-64
2022/09/22 04:31:28;;;;;;;3.58;2.92;;;14.10;81.20;;;;;;5054790;28;20492;-63
2022/09/22 04:33:54;;;;;;;3.85;3.40;;;14.10;81.10;;;;;;5058849;28;20056;-63
2022/09/22 04:36:20;;;;;;;3.47;3.00;;;14.20;80.90;;;;;;5056968;28;20068;-63
2022/09/22 04:38:45;;;;;;;4.10;2.97;;;14.20;80.90;;;;;;5057727;28;20122;-64
2022/09/22 04:41:11;;;;;;;3.55;2.83;;;14.20;80.90;;;;;;5052811;28;20089;-63
2022/09/22 04:43:38;;;;;;;4.57;3.33;;;14.20;80.90;;;;;;5058231;28;20048;-63
2022/09/22 04:46:03;;;;;;;2.90;2.60;;;14.30;81.00;;;;;;5056994;28;20025;-63
2022/09/22 04:48:29;;;;;;;2.95;2.63;;;14.30;81.00;;;;;;5057623;28;20025;-63
2022/09/22 04:50:55;;;;;;;3.45;2.42;;;14.40;80.90;;;;;;5055968;28;20025;-64
2022/09/22 04:53:20;;;;;;;3.33;2.88;;;14.40;80.80;;;;;;5057635;28;20095;-63
2022/09/22 04:55:48;;;;;;;3.75;2.78;;;14.50;80.70;;;;;;5054857;28;20056;-63
2022/09/22 04:58:14;;;;;;;3.78;2.92;;;14.60;80.50;;;;;;5055220;28;20391;-64
2022/09/22 05:00:40;;;;;;;3.08;2.75;;;14.60;80.40;;;;;;5058229;28;20033;-64
2022/09/22 05:03:11;;;;;;;4.30;2.92;;;14.70;80.30;;;;;;5057357;28;20028;-63
2022/09/22 05:05:37;;;;;;;3.78;2.80;;;14.80;80.10;;;;;;5057228;28;20096;-63
2022/09/22 05:08:04;;;;;;;3.45;2.70;;;14.80;79.90;;;;;;5055741;28;20040;-63
2022/09/22 05:10:31;;;;;;;2.90;2.60;;;14.80;79.90;;;;;;5054203;28;20025;-63
2022/09/22 05:12:57;;;;;;;3.45;3.05;;;14.90;79.70;;;;;;5047713;28;20037;-63
2022/09/22 05:15:24;;;;;;;3.08;2.75;;;14.90;79.60;;;;;;5057818;28;20639;-63
2022/09/22 05:17:52;;;;;;;3.13;2.83;;;14.90;79.60;;;;;;5057593;28;20052;-64
2022/09/22 05:20:20;;;;;;;2.85;2.63;;;15.00;79.40;;;;;;5052035;28;20025;-63
2022/09/22 05:22:46;;;;;;;2.60;2.40;;;15.00;79.30;;;;;;5056184;28;20028;-64
2022/09/22 05:25:17;;;;;;;3.35;2.88;;;15.00;79.20;;;;;;5055712;28;20025;-63
2022/09/22 05:27:51;;;;;;;3.17;2.80;;;15.10;79.20;;;;;;5053920;28;20506;-63
2022/09/22 05:30:19;;;;;;;3.53;3.00;;;15.00;79.00;;;;;;5058323;28;20081;-64
2022/09/22 05:32:46;;;;;;;3.80;3.20;;;15.00;78.80;;;;;;5058929;28;20044;-63
2022/09/22 05:35:13;;;;;;;4.05;3.20;;;15.00;78.80;;;;;;5058471;28;20021;-64
2022/09/22 05:37:42;;;;;;;3.72;3.25;;;15.00;78.70;;;;;;5058196;28;20025;-63
2022/09/22 05:40:09;;;;;;;4.32;3.50;;;15.00;78.90;;;;;;5052964;28;20397;-63
2022/09/22 05:42:40;;;;;;;3.22;2.92;;;14.90;78.80;;;;;;5057729;28;20017;-63
2022/09/22 05:45:06;;;;;;;5.00;3.45;;;14.90;78.90;;;;;;5055706;28;20107;-63
2022/09/22 05:47:33;;;;;;;3.72;3.28;;;14.90;78.70;;;;;;5050897;28;20030;-63
2022/09/22 05:49:59;;;;;;;3.35;3.03;;;14.90;78.70;;;;;;5051927;28;20033;-63
2022/09/22 05:52:24;;;;;;;3.83;3.17;;;14.90;78.70;;;;;;5049106;28;21412;-63
2022/09/22 05:54:50;;;;;;;3.78;3.25;;;14.80;78.70;;;;;;5051510;28;20432;-63
2022/09/22 05:57:16;;;;;;;3.30;2.95;;;14.90;78.70;;;;;;5054169;28;20033;-63
2022/09/22 05:59:41;;;;;;;4.88;3.15;;;14.80;78.60;;;;;;5053701;28;20025;-63
2022/09/22 06:02:10;;;;;;;4.80;3.50;;;14.90;78.70;;;;;;5050702;28;20476;-63
2022/09/22 06:04:35;;;;;;;4.25;2.95;;;14.90;78.70;;;;;;5067175;28;20029;-63
2022/09/22 06:07:01;;;;;;;4.40;3.13;;;15.00;78.80;;;;;;5049191;28;20040;-64
2022/09/22 06:09:26;;;;;;;4.07;3.33;;;15.10;78.70;;;;;;5047536;28;20089;-63
2022/09/22 06:11:52;;;;;;;4.03;3.40;;;15.30;78.20;;;;;;5046313;28;20033;-63
2022/09/22 06:14:18;;;;;;;4.72;3.85;;;15.60;77.50;;;;;;5049530;28;20044;-63
2022/09/22 06:16:43;;;;;;;4.95;3.83;;;15.70;77.00;;;;;;5048935;28;20021;-63
2022/09/22 06:19:09;;;;;;;4.25;3.47;;;15.80;76.80;;;;;;5049112;28;20029;-63
2022/09/22 06:21:34;;;;;;;5.25;3.88;;;15.80;76.70;;;;;;5049562;28;20041;-63
2022/09/22 06:24:00;;;;;;;4.35;3.80;;;15.70;76.70;;;;;;5049183;28;20033;-63
2022/09/22 06:26:26;;;;;;;4.57;3.95;;;15.70;77.50;;;;;;5048004;28;20136;-63
2022/09/22 06:28:52;;;;;;;3.80;3.38;;;15.60;77.20;;;;;;5049456;28;20017;-64
2022/09/22 06:31:17;;;;;;;4.25;3.35;;;15.60;77.30;;;;;;5049751;28;20029;-63
2022/09/22 06:33:47;;;;;;;4.07;3.30;;;15.50;77.40;;;;;;5046596;28;20059;-63
2022/09/22 06:36:21;;;;;;;3.97;3.10;;;15.50;77.50;;;;;;5045222;28;20025;-63
2022/09/22 06:38:47;;;;;;;3.85;3.17;;;15.50;77.80;;;;;;5044789;28;20071;-63
2022/09/22 06:41:13;;;;;;;4.05;2.97;;;15.50;78.20;;;;;;5048307;28;20056;-64
2022/09/22 06:43:38;;;;;;;3.40;3.00;;;15.50;78.20;;;;;;5043739;28;20353;-63
2022/09/22 06:46:04;;;;;;;2.88;2.63;;;15.60;78.00;;;;;;5041539;28;20754;-65
2022/09/22 06:48:30;;;;;;;4.05;3.10;;;15.60;78.10;;;;;;5041138;28;20040;-64
2022/09/22 06:50:56;;;;;;;3.33;2.83;;;15.60;78.00;;;;;;5037025;28;20434;-65
2022/09/22 06:53:23;;;;;;;3.10;2.80;;;15.70;78.00;;;;;;5039478;28;20075;-65
2022/09/22 06:55:48;;;;;;;3.03;2.65;;;15.70;78.10;;;;;;5037343;28;20391;-65
2022/09/22 06:58:14;;;;;;;2.95;2.65;;;15.70;78.00;;;;;;5045667;28;20120;-66
2022/09/22 07:00:42;;;;;;;2.83;2.50;;;15.80;78.10;;;;;;5035813;28;20494;-65
2022/09/22 07:03:20;;;;;;;3.63;2.75;;;15.80;77.90;;;;;;5032063;28;20025;-65
2022/09/22 07:05:57;;;;;;;3.20;2.75;;;15.90;77.70;;;;;;5030389;28;20060;-65
2022/09/22 07:08:24;;;;;;;3.50;2.80;;;15.90;77.60;;;;;;5024202;28;20029;-65
2022/09/22 07:11:01;;;;;;;3.60;2.88;;;16.00;77.70;;;;;;5027799;28;20748;-65
2022/09/22 07:13:30;;;;;;;2.97;2.67;;;16.00;77.70;;;;;;5030933;28;20048;-65
2022/09/22 07:16:06;;;;;;;3.63;3.00;;;16.10;77.80;;;;;;5033299;28;20028;-66
2022/09/22 07:18:32;;;;;;;3.25;2.80;;;16.10;77.70;;;;;;5027900;28;20094;-66
2022/09/22 07:21:07;;;;;;;2.67;2.47;;;16.20;77.60;;;;;;5033543;28;20055;-65
2022/09/22 07:23:34;;;;;;;3.22;2.40;;;16.30;77.60;;;;;;5035929;28;20029;-66
2022/09/22 07:26:04;;;;;;;3.58;2.47;;;16.40;77.50;;;;;;5027043;28;20017;-67
2022/09/22 07:28:31;;;;;;;2.55;2.35;;;16.40;76.90;;;;;;5032002;28;20079;-66
2022/09/22 07:31:24;;;;;;;2.58;2.38;;;16.50;76.70;;;;;;5023707;28;20029;-65
2022/09/22 07:33:52;;;;;;;2.30;2.20;;;16.50;76.00;;;;;;5024116;28;20126;-66
2022/09/22 07:36:20;;;;;;;3.22;2.42;;;16.40;75.80;;;;;;5024346;28;21702;-65
2022/09/22 07:38:49;;;;;;;2.92;2.60;;;16.40;75.50;;;;;;5021451;28;20045;-66
2022/09/22 07:41:21;;;;;;;3.35;2.75;;;16.30;75.60;;;;;;5024882;28;20357;-65
2022/09/22 07:43:55;;;;;;;3.15;2.67;;;16.20;75.70;;;;;;5021322;28;20029;-65
2022/09/22 07:46:21;;;;;;;2.70;2.45;;;16.10;75.70;;;;;;5028235;28;20032;-65
2022/09/22 07:48:47;;;;;;;3.17;2.63;;;16.10;75.80;;;;;;5030393;28;20033;-65
2022/09/22 07:51:24;;;;;;;2.80;2.60;;;16.10;76.00;;;;;;5028186;28;20634;-66
2022/09/22 07:53:53;;;;;;;3.13;2.60;;;16.00;75.80;;;;;;5025670;28;20365;-65
2022/09/22 07:56:26;;;;;;;3.25;2.53;;;16.00;75.80;;;;;;5031161;28;20025;-66
2022/09/22 07:58:53;;;;;;;3.03;2.63;;;15.90;75.70;;;;;;5022330;28;20017;-65
2022/09/22 08:01:21;;;;;;;3.03;2.65;;;15.90;75.50;;;;;;5017971;28;20026;-65
2022/09/22 08:03:47;;;;;;;4.28;3.42;;;15.90;75.50;;;;;;5021388;28;20037;-65
2022/09/22 08:06:14;;;;;;;3.55;3.03;;;15.80;75.60;;;;;;5024547;28;20772;-65
2022/09/22 08:08:52;;;;;;;4.68;3.97;;;15.80;75.70;;;;;;5020201;28;20451;-65
2022/09/22 08:11:20;;;;;;;4.00;3.60;;;15.80;75.60;;;;;;5025628;28;20532;-65
2022/09/22 08:14:10;;;;;;;4.22;3.30;;;15.80;75.60;;;;;;5022667;28;20460;-65
2022/09/22 08:16:38;;;;;;;4.57;3.67;;;15.80;75.60;;;;;;5023470;28;20053;-65
2022/09/22 08:19:11;;;;;;;3.58;3.28;;;15.80;75.80;;;;;;5024442;28;20132;-66
2022/09/22 08:21:38;;;;;;;3.63;3.20;;;15.80;75.90;;;;;;5019933;28;20372;-65
2022/09/22 08:24:05;;;;;;;3.50;3.10;;;15.80;75.90;;;;;;5028859;28;20039;-65
2022/09/22 08:26:31;;;;;;;5.03;3.45;;;15.80;75.90;;;;;;5036183;28;20498;-65
2022/09/22 08:28:57;;;;;;;3.97;3.22;;;15.80;75.80;;;;;;5026768;28;20028;-65
2022/09/22 08:31:25;;;;;;;4.32;3.60;;;15.80;75.70;;;;;;5025200;28;20550;-65
2022/09/22 08:33:52;;;;;;;4.10;3.40;;;15.80;75.40;;;;;;5021697;28;20039;-66
2022/09/22 08:36:19;;;;;;;4.72;3.85;;;15.80;75.20;;;;;;5019358;28;20492;-64
2022/09/22 08:38:48;;;;;;;5.70;5.00;;;15.80;75.00;;;;;;5019238;28;20064;-66
2022/09/22 08:41:20;;;;;;;5.47;4.32;;;15.80;75.20;;;;;;5021648;28;20028;-65
2022/09/22 08:43:54;;;;;;;5.38;4.32;;;15.90;75.30;;;;;;5018722;28;20825;-65
2022/09/22 08:46:24;;;;;;;5.25;4.53;;;15.90;75.10;;;;;;5007875;28;20788;-65
2022/09/22 08:51:51;;;;;;;5.43;4.65;;;15.80;74.90;;;;;;5023036;28;20744;-65
2022/09/22 08:54:27;;;;;;;5.93;4.88;;;15.90;75.00;;;;;;5019958;28;20037;-65
2022/09/22 08:57:04;;;;;;;5.47;4.78;;;15.80;74.90;;;;;;5021608;28;20029;-64
2022/09/22 08:59:44;;;;;;;6.30;5.47;;;15.80;75.10;;;;;;5023480;28;20396;-65
2022/09/22 09:02:58;;;;;;;6.18;5.40;;;15.80;75.00;;;;;;5017380;28;20033;-65
2022/09/22 09:05:42;;;;;;;6.07;4.90;;;15.80;75.00;;;;;;4984069;28;20046;-65
2022/09/22 09:08:27;;;;;;;5.85;4.60;;;15.80;75.00;;;;;;5029804;28;20029;-65
2022/09/22 09:10:54;;;;;;;4.97;4.47;;;15.80;75.00;;;;;;5025847;28;20113;-65
2022/09/22 09:13:40;;;;;;;5.13;4.50;;;15.80;75.20;;;;;;5022995;28;20041;-65
2022/09/22 09:16:36;;;;;;;5.28;4.53;;;15.90;75.00;;;;;;5017862;28;20984;-65
2022/09/22 09:19:10;;;;;;;5.22;4.72;;;15.90;75.10;;;;;;5010803;28;20186;-64
2022/09/22 09:21:39;;;;;;;5.05;4.25;;;15.90;75.10;;;;;;5026600;28;20238;-65
2022/09/22 09:24:13;;;;;;;5.57;4.97;;;15.90;74.90;;;;;;5025563;28;20365;-66
2022/09/22 09:26:39;;;;;;;5.38;4.72;;;15.90;74.80;;;;;;5025831;28;20029;-64
2022/09/22 09:29:11;;;;;;;5.00;4.50;;;15.90;74.90;;;;;;5020569;28;20114;-65
2022/09/22 09:31:40;;;;;;;5.63;4.50;;;15.90;74.90;;;;;;5024457;28;20040;-65
2022/09/22 09:34:15;;;;;;;5.05;4.53;;;16.00;75.00;;;;;;5023724;28;20314;-65
2022/09/22 09:36:44;;;;;;;5.43;4.45;;;16.00;74.90;;;;;;5029747;28;20033;-65
2022/09/22 09:39:15;;;;;;;5.40;4.90;;;16.00;75.10;;;;;;5023054;28;20046;-64
2022/09/22 09:41:45;;;;;;;4.85;4.20;;;16.00;75.10;;;;;;5026535;28;20025;-65
2022/09/22 09:44:45;;;;;;;4.15;3.63;;;16.00;75.10;;;;;;5027002;28;20034;-65
2022/09/22 09:47:26;;;;;;;2.58;2.38;;;16.00;74.80;;;;;;5017096;28;20122;-64
2022/09/22 09:49:53;;;;;;;2.03;1.92;;;15.90;74.60;;;;;;5028941;28;20027;-65
2022/09/22 09:52:20;;;;;;;2.60;2.40;;;16.00;74.70;;;;;;5023927;28;21252;-65
2022/09/22 09:54:49;;;;;;;2.05;1.95;;;15.90;74.30;;;;;;5027538;28;20013;-65
2022/09/22 09:57:19;;;;;;;2.20;2.00;;;16.00;74.30;;;;;;5026642;28;20034;-65
2022/09/22 10:00:30;;;;;;;2.45;2.20;;;16.00;74.00;;;;;;5019120;28;20658;-65
2022/09/22 10:02:59;;;;;;;2.75;2.53;;;16.00;73.50;;;;;;5017345;28;20127;-65
2022/09/22 10:05:26;;;;;;;2.70;2.45;;;15.90;73.60;;;;;;5027021;28;20020;-65
2022/09/22 10:07:59;;;;;;;3.78;2.50;;;15.90;73.60;;;;;;5029710;28;20021;-65
2022/09/22 10:10:32;;;;;;;2.45;2.25;;;15.90;73.70;;;;;;5021331;28;20030;-65
2022/09/22 10:13:04;;;;;;;3.35;2.88;;;15.80;73.80;;;;;;5031925;28;20558;-65
2022/09/22 10:15:35;;;;;;;2.70;2.50;;;15.80;73.70;;;;;;5027269;28;20028;-65
2022/09/22 10:18:01;;;;;;;3.13;2.83;;;15.80;73.70;;;;;;5023642;28;20072;-65
2022/09/22 10:20:30;;;;;;;2.47;2.28;;;15.80;73.80;;;;;;5025666;28;20183;-65
2022/09/22 10:23:20;;;;;;;3.72;2.97;;;15.70;73.80;;;;;;5027028;28;20025;-65
2022/09/22 10:25:47;;;;;;;3.00;2.80;;;15.70;73.80;;;;;;5014918;28;20017;-65
2022/09/22 10:28:14;;;;;;;4.57;3.50;;;15.70;73.80;;;;;;5026147;28;20033;-65
2022/09/22 10:30:42;;;;;;;6.45;5.07;;;15.70;74.00;;;;;;5022408;28;20033;-66
2022/09/22 10:33:07;;;;;;;7.95;6.00;;;15.60;73.90;;;;;;5027765;28;20492;-65
2022/09/22 10:35:34;;;;;;;4.43;3.70;;;15.60;74.00;;;;;;5020560;28;20075;-65
2022/09/22 10:38:25;;;;;;;4.35;3.85;;;15.70;74.00;;;;;;5028183;28;20032;-64
2022/09/22 10:41:13;;;;;;;4.00;3.60;;;15.70;74.00;;;;;;5025798;28;20061;-64
2022/09/22 10:43:53;;;;;;;3.85;3.42;;;15.70;73.80;;;;;;5027112;28;20068;-64
2022/09/22 10:46:50;;;;;;;5.23;3.77;;;15.70;73.80;;;;;;5026240;28;20029;-65
2022/09/22 10:49:34;;;;;;;4.78;3.42;;;15.70;73.80;;;;;;5021674;28;20025;-65
2022/09/22 10:52:22;;;;;;;3.75;3.15;;;15.70;73.80;;;;;;5012932;28;20025;-64
2022/09/22 10:55:03;;;;;;;4.47;4.05;;;15.80;73.80;;;;;;5017177;28;20119;-65
2022/09/22 10:57:46;;;;;;;4.20;3.72;;;15.80;73.50;;;;;;5020824;28;20036;-65
2022/09/22 11:00:16;;;;;;;4.15;3.70;;;15.80;73.50;;;;;;5013225;28;20029;-66
2022/09/22 11:02:54;;;;;;;4.60;4.03;;;15.80;73.50;;;;;;5009225;28;20033;-64
2022/09/22 11:13:59;;;;;;;4.60;4.13;;;15.80;73.00;;;;;;5024934;28;20052;-65
2022/09/22 11:16:43;;;;;;;4.40;3.70;;;15.90;73.00;;;;;;5025748;28;20483;-65
2022/09/22 11:19:27;;;;;;;4.55;4.13;;;15.90;72.80;;;;;;5016529;28;20041;-65
2022/09/22 11:21:53;;;;;;;4.40;4.00;;;15.90;72.70;;;;;;5021780;28;20070;-65
2022/09/22 11:24:49;;;;;;;4.13;3.72;;;15.90;72.50;;;;;;5016315;28;20135;-65
2022/09/22 11:27:35;;;;;;;3.95;3.58;;;16.00;72.20;;;;;;5013572;28;20646;-65
2022/09/22 11:30:00;;;;;;;4.68;3.60;;;16.00;72.00;;;;;;5034897;28;20029;-65
2022/09/22 11:32:35;;;;;;;4.22;3.83;;;16.00;71.70;;;;;;5019155;28;20040;-65
2022/09/22 11:35:16;;;;;;;3.80;3.38;;;16.10;71.80;;;;;;5011425;28;20029;-65
2022/09/22 11:37:49;;;;;;;3.88;3.42;;;16.10;71.60;;;;;;5008679;28;20148;-65
2022/09/22 11:40:53;;;;;;;5.82;3.70;;;16.10;71.70;;;;;;5011505;28;20078;-65
2022/09/22 11:43:46;;;;;;;4.25;3.50;;;16.00;71.60;;;;;;5012741;28;20118;-65
2022/09/22 11:46:30;;;;;;;4.13;3.60;;;16.00;71.60;;;;;;5016150;28;21635;-65
2022/09/22 11:49:14;;;;;;;4.22;3.75;;;16.00;71.80;;;;;;5021696;28;20029;-65
2022/09/22 11:51:57;;;;;;;3.65;3.33;;;16.10;71.70;;;;;;5020692;28;20045;-64
2022/09/22 11:54:48;;;;;;;3.90;3.08;;;16.10;71.80;;;;;;5024620;28;20063;-64
2022/09/22 11:57:17;;;;;;;3.17;2.88;;;16.10;71.80;;;;;;5019579;28;20024;-65
2022/09/22 11:59:49;;;;;;;5.30;3.92;;;16.10;71.80;;;;;;5017354;28;20029;-64
2022/09/22 12:02:36;;;;;;;3.53;3.22;;;16.10;71.70;;;;;;5007331;28;20037;-65
2022/09/22 12:05:09;;;;;;;4.80;3.78;;;16.10;71.70;;;;;;5022472;28;20075;-65
2022/09/22 12:08:06;;;;;;;3.65;3.25;;;16.10;71.70;;;;;;5019358;28;20017;-65
2022/09/22 12:10:35;;;;;;;3.95;3.55;;;16.10;71.80;;;;;;5016275;28;20546;-65
2022/09/22 12:13:04;;;;;;;3.83;3.38;;;16.20;72.00;;;;;;5019741;28;20048;-65
2022/09/22 12:15:59;;;;;;;4.82;4.25;;;16.30;72.00;;;;;;5027455;28;20099;-65
2022/09/22 12:18:39;;;;;;;4.72;3.85;;;16.30;71.80;;;;;;5014505;28;20072;-65
2022/09/22 12:21:35;;;;;;;3.83;3.40;;;16.30;71.70;;;;;;5026730;28;20033;-65
2022/09/22 12:24:11;;;;;;;3.83;3.08;;;16.40;71.70;;;;;;5020571;28;20066;-65
2022/09/22 12:26:42;;;;;;;4.97;3.45;;;16.40;71.40;;;;;;5020417;28;20029;-65
2022/09/22 12:29:15;;;;;;;5.00;3.83;;;16.40;71.30;;;;;;5018645;28;20040;-66
2022/09/22 12:31:47;;;;;;;3.53;3.22;;;16.40;70.90;;;;;;5024496;28;20079;-65
2022/09/22 12:34:25;;;;;;;3.63;3.13;;;16.40;70.80;;;;;;5021423;28;20139;-66
2022/09/22 12:37:07;;;;;;;3.47;3.17;;;16.30;70.80;;;;;;5011824;28;20369;-65
2022/09/22 12:39:42;;;;;;;3.70;3.33;;;16.40;71.10;;;;;;5020999;28;20622;-66
2022/09/22 12:42:35;;;;;;;3.30;2.95;;;16.40;71.20;;;;;;5024425;28;20033;-65
2022/09/22 12:45:24;;;;;;;3.40;3.10;;;16.30;71.20;;;;;;5031003;28;20532;-65
2022/09/22 12:47:54;;;;;;;3.30;3.00;;;16.40;71.40;;;;;;5030953;28;20112;-65
2022/09/22 12:50:22;;;;;;;3.70;3.35;;;16.40;71.60;;;;;;5023702;28;20064;-65
2022/09/22 12:52:49;;;;;;;3.08;2.78;;;16.40;71.50;;;;;;5028019;28;20083;-65
2022/09/22 12:55:27;;;;;;;3.17;2.88;;;16.40;71.50;;;;;;5030645;28;20052;-65
2022/09/22 12:58:01;;;;;;;2.85;2.63;;;16.40;71.60;;;;;;5033118;28;20114;-65
2022/09/22 13:00:38;;;;;;;2.72;2.50;;;16.40;71.50;;;;;;5029606;28;20032;-65
2022/09/22 13:03:26;;;;;;;2.47;2.25;;;16.40;71.40;;;;;;5026128;28;20017;-64
2022/09/22 13:05:58;;;;;;;2.70;2.50;;;16.40;71.50;;;;;;5023098;28;20120;-65
2022/09/22 13:08:27;;;;;;;3.88;3.08;;;16.40;71.80;;;;;;5027580;28;20021;-65
2022/09/22 13:10:58;;;;;;;3.95;3.33;;;16.50;71.70;;;;;;5029833;28;20083;-65
2022/09/22 13:13:30;;;;;;;2.85;2.63;;;16.50;71.60;;;;;;5028691;28;20993;-65
2022/09/22 13:16:13;;;;;;;3.15;2.70;;;16.50;71.50;;;;;;5028959;28;20499;-65
2022/09/22 13:18:42;;;;;;;3.38;3.08;;;16.40;71.40;;;;;;5026633;28;20033;-65
2022/09/22 13:21:24;;;;;;;3.63;3.10;;;16.40;71.40;;;;;;5030848;28;20411;-65
2022/09/22 13:23:50;;;;;;;3.28;2.88;;;16.40;71.40;;;;;;5030251;28;20056;-65
2022/09/22 13:26:21;;;;;;;2.92;2.67;;;16.30;71.40;;;;;;5031652;28;20842;-65
2022/09/22 13:29:12;;;;;;;2.70;2.50;;;16.30;71.20;;;;;;5029917;28;20128;-65